Time,TemperatureF,DewpointF,PressureIn,WindDirection,WindDirectionDegrees,WindSpeedMPH,WindSpeedGustMPH,Humidity,HourlyPrecipIn,Conditions,Clouds,dailyrainin,SoftwareType,DateUTC
2013-02-07 00:01:00,37.6,16.0,29.35,NNW,346,7.6,7.6,41,0.00,,---,0.00,VWS V14.01,2013-02-07 07:01:00,
2013-02-07 00:07:00,37.6,16.0,29.35,North,353,8.1,8.1,41,0.00,,---,0.00,VWS V14.01,2013-02-07 07:07:00,
2013-02-07 00:12:00,37.4,15.9,29.35,North,357,8.1,8.1,41,0.00,,---,0.00,VWS V14.01,2013-02-07 07:12:00,
2013-02-07 00:17:00,37.0,15.5,29.35,North,353,8.3,8.3,41,0.00,,---,0.00,VWS V14.01,2013-02-07 07:17:00,
2013-02-07 00:22:00,37.0,15.5,29.35,North,353,8.3,8.3,41,0.00,,---,0.00,VWS V14.01,2013-02-07 07:22:00,
2013-02-07 00:28:00,37.0,15.5,29.35,North,7,11.0,11.4,41,0.00,,---,0.00,VWS V14.01,2013-02-07 07:28:00,
2013-02-07 00:34:00,37.0,15.5,29.35,North,7,11.0,11.0,41,0.00,,---,0.00,VWS V14.01,2013-02-07 07:34:00,
2013-02-07 00:39:00,37.0,16.1,29.35,NNW,344,12.8,12.8,42,0.00,,---,0.00,VWS V14.01,2013-02-07 07:39:00,
2013-02-07 00:44:00,37.0,16.1,29.38,NNW,344,12.8,12.8,42,0.00,,---,0.00,VWS V14.01,2013-02-07 07:44:00,
2013-02-07 00:50:00,36.7,15.8,29.38,NNW,344,12.8,12.8,42,0.00,,---,0.00,VWS V14.01,2013-02-07 07:50:00,
2013-02-07 00:55:00,36.7,15.8,29.38,NW,315,13.6,13.6,42,0.00,,---,0.00,VWS V14.01,2013-02-07 07:55:00,
2013-02-07 01:01:00,36.3,15.4,29.38,NW,309,8.3,8.3,42,0.00,,---,0.00,VWS V14.01,2013-02-07 08:01:00,
2013-02-07 01:06:00,36.1,15.8,29.38,NW,317,13.2,15.4,43,0.00,,---,0.00,VWS V14.01,2013-02-07 08:06:00,
2013-02-07 01:11:00,36.1,15.8,29.38,NNW,330,16.8,16.8,43,0.00,,---,0.00,VWS V14.01,2013-02-07 08:11:00,
2013-02-07 01:17:00,36.0,15.6,29.38,NNW,330,16.8,16.8,43,0.00,,---,0.00,VWS V14.01,2013-02-07 08:17:00,
2013-02-07 01:23:00,36.0,15.6,29.38,NNW,329,13.2,13.2,43,0.00,,---,0.00,VWS V14.01,2013-02-07 08:23:00,
2013-02-07 01:28:00,36.0,15.6,29.38,NNW,329,13.2,13.2,43,0.00,,---,0.00,VWS V14.01,2013-02-07 08:28:00,
2013-02-07 01:34:00,35.8,15.5,29.38,NW,321,11.0,11.0,43,0.00,,---,0.00,VWS V14.01,2013-02-07 08:34:00,
2013-02-07 01:39:00,35.4,15.7,29.38,NW,321,11.0,11.0,44,0.00,,---,0.00,VWS V14.01,2013-02-07 08:39:00,
2013-02-07 01:44:00,34.9,15.2,29.38,NW,326,10.1,10.1,44,0.00,,---,0.00,VWS V14.01,2013-02-07 08:44:00,
2013-02-07 01:50:00,34.7,15.6,29.38,NW,315,13.2,13.2,45,0.00,,---,0.00,VWS V14.01,2013-02-07 08:50:00,
2013-02-07 01:55:00,34.7,15.6,29.38,NW,310,13.6,13.6,45,0.00,,---,0.00,VWS V14.01,2013-02-07 08:55:00,
2013-02-07 02:00:00,34.7,17.0,29.41,NW,318,15.0,15.0,48,0.00,,---,0.00,VWS V14.01,2013-02-07 09:00:00,
2013-02-07 02:06:00,34.7,17.0,29.41,NW,317,11.0,11.0,48,0.00,,---,0.00,VWS V14.01,2013-02-07 09:06:00,
2013-02-07 02:12:00,34.7,17.0,29.41,NW,307,10.5,10.5,48,0.00,,---,0.00,VWS V14.01,2013-02-07 09:12:00,
2013-02-07 02:18:00,34.3,17.2,29.41,NW,310,11.0,11.0,49,0.00,,---,0.00,VWS V14.01,2013-02-07 09:18:00,
2013-02-07 02:23:00,34.0,17.3,29.41,NNW,338,8.1,8.1,50,0.00,,---,0.00,VWS V14.01,2013-02-07 09:23:00,
2013-02-07 02:28:00,34.0,17.3,29.41,NW,321,12.8,12.8,50,0.00,,---,0.00,VWS V14.01,2013-02-07 09:28:00,
2013-02-07 02:33:00,34.3,18.1,29.41,NW,321,12.8,12.8,51,0.00,,---,0.00,VWS V14.01,2013-02-07 09:33:00,
2013-02-07 02:39:00,34.3,18.1,29.41,NNW,333,12.8,12.8,51,0.00,,---,0.00,VWS V14.01,2013-02-07 09:39:00,
2013-02-07 02:44:00,34.3,18.1,29.41,NNW,333,12.8,12.8,51,0.00,,---,0.00,VWS V14.01,2013-02-07 09:44:00,
2013-02-07 02:49:00,34.9,19.1,29.41,NNW,335,13.2,15.4,52,0.00,,---,0.00,VWS V14.01,2013-02-07 09:49:00,
2013-02-07 02:55:00,34.9,19.1,29.41,NNW,336,12.3,12.3,52,0.00,,---,0.00,VWS V14.01,2013-02-07 09:55:00,
2013-02-07 03:00:00,34.9,19.1,29.41,NNW,336,12.3,12.3,52,0.00,,---,0.00,VWS V14.01,2013-02-07 10:00:00,
2013-02-07 03:05:00,34.9,19.1,29.41,NNW,327,12.3,12.3,52,0.00,,---,0.00,VWS V14.01,2013-02-07 10:05:00,
2013-02-07 03:10:00,34.5,18.3,29.41,NNW,333,11.0,12.3,51,0.00,,---,0.00,VWS V14.01,2013-02-07 10:10:00,
2013-02-07 03:16:00,34.2,17.9,29.41,NNW,333,11.0,11.0,51,0.00,,---,0.00,VWS V14.01,2013-02-07 10:16:00,
2013-02-07 03:22:00,34.2,17.9,29.41,NNW,335,8.1,8.1,51,0.00,,---,0.00,VWS V14.01,2013-02-07 10:22:00,
2013-02-07 03:27:00,34.2,17.9,29.41,NNW,331,9.2,9.2,51,0.00,,---,0.00,VWS V14.01,2013-02-07 10:27:00,
2013-02-07 03:33:00,33.3,17.5,29.41,NW,325,8.3,8.3,52,0.00,,---,0.00,VWS V14.01,2013-02-07 10:33:00,
2013-02-07 03:38:00,33.1,17.4,29.41,NW,325,8.3,8.3,52,0.00,,---,0.00,VWS V14.01,2013-02-07 10:38:00,
2013-02-07 03:43:00,32.7,17.0,29.41,NW,310,8.3,8.3,52,0.00,,---,0.00,VWS V14.01,2013-02-07 10:43:00,
2013-02-07 03:49:00,32.7,17.5,29.41,WNW,300,8.7,8.7,53,0.00,,---,0.00,VWS V14.01,2013-02-07 10:49:00,
2013-02-07 03:54:00,32.7,17.5,29.41,WNW,301,8.7,10.1,53,0.00,,---,0.00,VWS V14.01,2013-02-07 10:54:00,
2013-02-07 03:59:00,33.1,18.3,29.41,NW,305,10.5,11.0,54,0.00,,---,0.00,VWS V14.01,2013-02-07 10:59:00,
2013-02-07 04:05:00,33.1,18.3,29.41,NW,305,10.5,10.5,54,0.00,,---,0.00,VWS V14.01,2013-02-07 11:05:00,
2013-02-07 04:11:00,33.1,18.7,29.41,NW,310,11.0,13.2,55,0.00,,---,0.00,VWS V14.01,2013-02-07 11:11:00,
2013-02-07 04:16:00,33.1,18.7,29.41,WNW,297,18.8,18.8,55,0.00,,---,0.00,VWS V14.01,2013-02-07 11:16:00,
2013-02-07 04:21:00,34.0,22.0,29.41,NW,306,19.7,19.7,61,0.00,,---,0.00,VWS V14.01,2013-02-07 11:21:00,
2013-02-07 04:27:00,34.3,22.7,29.41,NW,305,13.2,13.2,62,0.00,,---,0.00,VWS V14.01,2013-02-07 11:27:00,
2013-02-07 04:32:00,34.5,22.9,29.41,NW,310,12.8,12.8,62,0.00,,---,0.00,VWS V14.01,2013-02-07 11:32:00,
2013-02-07 04:38:00,34.5,22.9,29.41,NW,312,17.4,17.4,62,0.00,,---,0.00,VWS V14.01,2013-02-07 11:38:00,
2013-02-07 04:43:00,34.5,22.9,29.41,NW,312,11.0,11.0,62,0.00,,---,0.00,VWS V14.01,2013-02-07 11:43:00,
2013-02-07 04:48:00,34.2,22.9,29.41,WNW,299,15.4,15.4,63,0.00,,---,0.00,VWS V14.01,2013-02-07 11:48:00,
2013-02-07 04:54:00,34.2,22.9,29.41,WNW,301,13.2,13.2,63,0.00,,---,0.00,VWS V14.01,2013-02-07 11:54:00,
2013-02-07 05:00:00,33.6,22.8,29.41,WNW,301,12.8,12.8,64,0.00,,---,0.00,VWS V14.01,2013-02-07 12:00:00,
2013-02-07 05:05:00,33.4,22.6,29.41,WNW,302,17.4,17.4,64,0.00,,---,0.00,VWS V14.01,2013-02-07 12:05:00,
2013-02-07 05:11:00,33.3,22.8,29.41,NW,304,13.6,13.6,65,0.00,,---,0.00,VWS V14.01,2013-02-07 12:11:00,
2013-02-07 05:16:00,32.9,22.4,29.41,NW,311,11.4,11.4,65,0.00,,---,0.00,VWS V14.01,2013-02-07 12:16:00,
2013-02-07 05:22:00,32.9,22.4,29.41,WNW,302,12.3,12.3,65,0.00,,---,0.00,VWS V14.01,2013-02-07 12:22:00,
2013-02-07 05:28:00,32.2,21.8,29.41,NW,306,12.8,12.8,65,0.00,,---,0.00,VWS V14.01,2013-02-07 12:28:00,
2013-02-07 05:33:00,32.0,21.9,29.41,NW,306,12.8,12.8,66,0.00,,---,0.00,VWS V14.01,2013-02-07 12:33:00,
2013-02-07 05:39:00,32.0,22.3,29.41,NW,307,12.3,12.3,67,0.00,,---,0.00,VWS V14.01,2013-02-07 12:39:00,
2013-02-07 05:44:00,32.2,22.5,29.41,WNW,298,15.9,15.9,67,0.00,,---,0.00,VWS V14.01,2013-02-07 12:44:00,
2013-02-07 05:50:00,32.4,23.3,29.41,WNW,303,18.3,18.3,69,0.00,,---,0.00,VWS V14.01,2013-02-07 12:50:00,
2013-02-07 05:55:00,32.5,23.5,29.41,WNW,302,13.6,13.6,69,0.00,,---,0.00,VWS V14.01,2013-02-07 12:55:00,
2013-02-07 06:01:00,32.5,23.5,29.41,NW,306,10.1,10.1,69,0.00,,---,0.00,VWS V14.01,2013-02-07 13:01:00,
2013-02-07 06:07:00,32.2,22.8,29.41,NW,317,10.1,12.8,68,0.00,,---,0.00,VWS V14.01,2013-02-07 13:07:00,
2013-02-07 06:12:00,32.2,22.8,29.41,WNW,293,10.5,10.5,68,0.00,,---,0.00,VWS V14.01,2013-02-07 13:12:00,
2013-02-07 06:18:00,31.3,22.3,29.41,NW,304,15.0,15.0,69,0.00,,---,0.00,VWS V14.01,2013-02-07 13:18:00,
2013-02-07 06:24:00,31.5,22.5,29.41,WNW,299,15.0,15.0,69,0.00,,---,0.00,VWS V14.01,2013-02-07 13:24:00,
2013-02-07 06:30:00,31.8,23.2,29.41,WNW,291,15.4,15.4,70,0.00,,---,0.00,VWS V14.01,2013-02-07 13:30:00,
2013-02-07 06:35:00,31.8,23.2,29.41,WNW,291,12.8,12.8,70,0.00,,---,0.00,VWS V14.01,2013-02-07 13:35:00,
2013-02-07 06:40:00,31.8,23.2,29.44,NW,305,12.8,12.8,70,0.00,,---,0.00,VWS V14.01,2013-02-07 13:40:00,
2013-02-07 06:46:00,30.9,22.0,29.44,WNW,298,12.8,12.8,69,0.00,,---,0.00,VWS V14.01,2013-02-07 13:46:00,
2013-02-07 06:51:00,30.9,22.0,29.44,WNW,302,15.0,15.9,69,0.00,,---,0.00,VWS V14.01,2013-02-07 13:51:00,
2013-02-07 06:56:00,30.9,22.0,29.44,WNW,296,12.3,12.3,69,0.00,,---,0.00,VWS V14.01,2013-02-07 13:56:00,
2013-02-07 07:01:00,30.0,21.1,29.44,WNW,291,15.0,15.0,69,0.00,,---,0.00,VWS V14.01,2013-02-07 14:01:00,
2013-02-07 07:07:00,30.0,21.4,29.44,WNW,297,15.4,15.4,70,0.00,,---,0.00,VWS V14.01,2013-02-07 14:07:00,
2013-02-07 07:13:00,30.0,21.4,29.44,WNW,293,15.0,15.0,70,0.00,,---,0.00,VWS V14.01,2013-02-07 14:13:00,
2013-02-07 07:18:00,30.0,21.4,29.44,WNW,290,12.8,12.8,70,0.00,,---,0.00,VWS V14.01,2013-02-07 14:18:00,
2013-02-07 07:24:00,30.0,21.4,29.44,WNW,296,15.0,15.0,70,0.00,,---,0.00,VWS V14.01,2013-02-07 14:24:00,
2013-02-07 07:29:00,30.7,22.5,29.44,WNW,292,12.8,13.2,71,0.00,,---,0.00,VWS V14.01,2013-02-07 14:29:00,
2013-02-07 07:35:00,30.7,22.5,29.44,WNW,292,12.8,12.8,71,0.00,,---,0.00,VWS V14.01,2013-02-07 14:35:00,
2013-02-07 07:41:00,30.7,22.5,29.44,WNW,296,12.8,12.8,71,0.00,,---,0.00,VWS V14.01,2013-02-07 14:41:00,
2013-02-07 07:46:00,30.9,22.6,29.44,NW,305,11.0,11.0,71,0.00,,---,0.00,VWS V14.01,2013-02-07 14:46:00,
2013-02-07 07:52:00,31.3,23.0,29.44,NW,305,11.0,11.0,71,0.00,,---,0.00,VWS V14.01,2013-02-07 14:52:00,
2013-02-07 07:57:00,31.3,23.0,29.44,WNW,303,12.3,12.3,71,0.00,,---,0.00,VWS V14.01,2013-02-07 14:57:00,
2013-02-07 08:02:00,31.3,23.0,29.44,WNW,303,12.3,12.3,71,0.00,,---,0.00,VWS V14.01,2013-02-07 15:02:00,
2013-02-07 08:07:00,32.2,23.9,29.44,WNW,294,10.5,10.5,71,0.00,,---,0.00,VWS V14.01,2013-02-07 15:07:00,
2013-02-07 08:13:00,32.2,23.9,29.47,WNW,291,10.5,10.5,71,0.00,,---,0.00,VWS V14.01,2013-02-07 15:13:00,
2013-02-07 08:18:00,33.1,24.7,29.47,WNW,298,11.9,13.2,71,0.00,,---,0.00,VWS V14.01,2013-02-07 15:18:00,
2013-02-07 08:23:00,33.1,24.7,29.47,West,272,10.5,10.5,71,0.00,,---,0.00,VWS V14.01,2013-02-07 15:23:00,
2013-02-07 08:28:00,33.6,24.9,29.47,WNW,292,10.1,10.1,70,0.00,,---,0.00,VWS V14.01,2013-02-07 15:28:00,
2013-02-07 08:34:00,34.0,24.9,29.47,WNW,290,10.5,10.5,69,0.00,,---,0.00,VWS V14.01,2013-02-07 15:34:00,
2013-02-07 08:39:00,34.5,25.1,29.47,WNW,296,13.2,13.2,68,0.00,,---,0.00,VWS V14.01,2013-02-07 15:39:00,
2013-02-07 08:45:00,34.9,24.7,29.47,WNW,288,15.0,15.0,66,0.00,,---,0.00,VWS V14.01,2013-02-07 15:45:00,
2013-02-07 08:50:00,35.2,24.3,29.47,WNW,303,15.0,15.0,64,0.00,,---,0.00,VWS V14.01,2013-02-07 15:50:00,
2013-02-07 08:55:00,35.2,24.3,29.47,WNW,297,15.0,15.0,64,0.00,,---,0.00,VWS V14.01,2013-02-07 15:55:00,
2013-02-07 09:02:00,36.1,23.6,29.47,WNW,289,13.2,13.2,60,0.00,,---,0.00,VWS V14.01,2013-02-07 16:02:00,
2013-02-07 09:07:00,36.9,23.1,29.47,WNW,289,15.0,15.0,57,0.00,,---,0.00,VWS V14.01,2013-02-07 16:07:00,
2013-02-07 09:12:00,37.4,21.9,29.50,WNW,295,10.5,10.5,53,0.00,,---,0.00,VWS V14.01,2013-02-07 16:12:00,
2013-02-07 09:17:00,37.6,21.1,29.50,WNW,297,17.4,17.4,51,0.00,,---,0.00,VWS V14.01,2013-02-07 16:17:00,
2013-02-07 09:23:00,37.9,20.0,29.50,WNW,291,14.5,15.4,48,0.00,,---,0.00,VWS V14.01,2013-02-07 16:23:00,
2013-02-07 09:28:00,38.5,20.0,29.50,WNW,284,12.8,12.8,47,0.00,,---,0.00,VWS V14.01,2013-02-07 16:28:00,
2013-02-07 09:34:00,39.4,19.3,29.50,WNW,294,11.4,11.4,44,0.00,,---,0.00,VWS V14.01,2013-02-07 16:34:00,
2013-02-07 09:39:00,39.4,18.8,29.50,WNW,289,15.4,15.4,43,0.00,,---,0.00,VWS V14.01,2013-02-07 16:39:00,
2013-02-07 09:45:00,39.9,18.1,29.50,WNW,298,15.4,15.4,41,0.00,,---,0.00,VWS V14.01,2013-02-07 16:45:00,
2013-02-07 09:50:00,40.6,18.2,29.50,WNW,298,18.8,18.8,40,0.00,,---,0.00,VWS V14.01,2013-02-07 16:50:00,
2013-02-07 09:56:00,40.6,18.2,29.50,NW,312,16.3,16.3,40,0.00,,---,0.00,VWS V14.01,2013-02-07 16:56:00,
2013-02-07 10:01:00,41.7,18.6,29.50,NW,312,16.3,16.3,39,0.00,,---,0.00,VWS V14.01,2013-02-07 17:01:00,
2013-02-07 10:06:00,42.3,19.1,29.50,WNW,295,15.4,15.4,39,0.00,,---,0.00,VWS V14.01,2013-02-07 17:06:00,
2013-02-07 10:12:00,42.8,19.0,29.50,WNW,286,13.2,13.2,38,0.00,,---,0.00,VWS V14.01,2013-02-07 17:12:00,
2013-02-07 10:17:00,43.3,19.5,29.50,NW,306,11.4,14.5,38,0.00,,---,0.00,VWS V14.01,2013-02-07 17:17:00,
2013-02-07 10:24:00,43.7,17.9,29.50,NW,308,11.0,15.9,35,0.00,,---,0.00,VWS V14.01,2013-02-07 17:24:00,
2013-02-07 10:30:00,44.1,18.2,29.50,WNW,294,14.1,14.1,35,0.00,,---,0.00,VWS V14.01,2013-02-07 17:30:00,
2013-02-07 10:35:00,44.8,16.7,29.53,NW,322,14.5,14.5,32,0.00,,---,0.00,VWS V14.01,2013-02-07 17:35:00,
2013-02-07 10:41:00,45.5,17.4,29.53,NW,315,10.1,10.1,32,0.00,,---,0.00,VWS V14.01,2013-02-07 17:41:00,
2013-02-07 10:46:00,46.0,16.4,29.53,NW,308,15.4,15.4,30,0.00,,---,0.00,VWS V14.01,2013-02-07 17:46:00,
2013-02-07 10:51:00,46.0,16.4,29.53,NW,310,13.6,13.6,30,0.00,,---,0.00,VWS V14.01,2013-02-07 17:51:00,
2013-02-07 10:56:00,46.2,15.7,29.53,WNW,299,15.0,15.0,29,0.00,,---,0.00,VWS V14.01,2013-02-07 17:56:00,
2013-02-07 11:02:00,46.2,15.7,29.53,NW,306,13.2,13.2,29,0.00,,---,0.00,VWS V14.01,2013-02-07 18:02:00,
2013-02-07 11:08:00,46.4,15.1,29.53,NW,314,12.8,12.8,28,0.00,,---,0.00,VWS V14.01,2013-02-07 18:08:00,
2013-02-07 11:13:00,46.6,15.2,29.53,NNW,330,13.2,14.5,28,0.00,,---,0.00,VWS V14.01,2013-02-07 18:13:00,
2013-02-07 11:19:00,46.9,15.6,29.53,NNW,333,12.8,12.8,28,0.00,,---,0.00,VWS V14.01,2013-02-07 18:19:00,
2013-02-07 11:24:00,47.3,15.0,29.53,NNW,327,12.3,12.3,27,0.00,,---,0.00,VWS V14.01,2013-02-07 18:24:00,
2013-02-07 11:30:00,47.3,15.0,29.50,NW,309,14.5,14.5,27,0.00,,---,0.00,VWS V14.01,2013-02-07 18:30:00,
2013-02-07 11:35:00,47.5,15.2,29.50,NW,312,12.3,12.3,27,0.00,,---,0.00,VWS V14.01,2013-02-07 18:35:00,
2013-02-07 11:41:00,47.7,15.3,29.50,NNW,345,11.0,15.4,27,0.00,,---,0.00,VWS V14.01,2013-02-07 18:41:00,
2013-02-07 11:47:00,47.8,15.5,29.50,NW,314,15.4,15.4,27,0.00,,---,0.00,VWS V14.01,2013-02-07 18:47:00,
2013-02-07 11:52:00,48.0,13.0,29.50,NW,307,15.4,15.4,24,0.00,,---,0.00,VWS V14.01,2013-02-07 18:52:00,
2013-02-07 11:58:00,48.0,13.0,29.50,WNW,299,9.2,9.2,24,0.00,,---,0.00,VWS V14.01,2013-02-07 18:58:00,
2013-02-07 12:03:00,48.2,13.1,29.50,NW,313,12.8,12.8,24,0.00,,---,0.00,VWS V14.01,2013-02-07 19:03:00,
2013-02-07 12:09:00,48.2,13.1,29.50,WNW,301,8.7,8.7,24,0.00,,---,0.00,VWS V14.01,2013-02-07 19:09:00,
2013-02-07 12:15:00,48.6,13.4,29.50,WNW,297,14.1,14.1,24,0.00,,---,0.00,VWS V14.01,2013-02-07 19:15:00,
2013-02-07 12:20:00,48.9,10.7,29.50,NW,311,15.4,15.4,21,0.00,,---,0.00,VWS V14.01,2013-02-07 19:20:00,
2013-02-07 12:26:00,49.1,10.9,29.50,WNW,293,17.9,17.9,21,0.00,,---,0.00,VWS V14.01,2013-02-07 19:26:00,
2013-02-07 12:32:00,49.1,8.6,29.50,NW,314,13.2,13.2,19,0.00,,---,0.00,VWS V14.01,2013-02-07 19:32:00,
2013-02-07 12:37:00,49.3,8.8,29.50,NW,325,12.8,12.8,19,0.00,,---,0.00,VWS V14.01,2013-02-07 19:37:00,
2013-02-07 12:42:00,49.6,5.3,29.50,NNW,341,12.8,12.8,16,0.00,,---,0.00,VWS V14.01,2013-02-07 19:42:00,
2013-02-07 12:48:00,49.8,5.4,29.50,NW,306,10.5,10.5,16,0.00,,---,0.00,VWS V14.01,2013-02-07 19:48:00,
2013-02-07 12:53:00,49.8,5.4,29.50,NW,322,13.6,15.4,16,0.00,,---,0.00,VWS V14.01,2013-02-07 19:53:00,
2013-02-07 12:58:00,49.8,5.4,29.50,NNW,334,14.5,14.5,16,0.00,,---,0.00,VWS V14.01,2013-02-07 19:58:00,
2013-02-07 13:04:00,49.8,5.4,29.50,NW,321,11.0,13.2,16,0.00,,---,0.00,VWS V14.01,2013-02-07 20:04:00,
2013-02-07 13:09:00,50.0,5.6,29.50,NW,304,15.0,15.0,16,0.00,,---,0.00,VWS V14.01,2013-02-07 20:09:00,
2013-02-07 13:15:00,50.2,5.7,29.50,WNW,295,13.6,13.6,16,0.00,,---,0.00,VWS V14.01,2013-02-07 20:15:00,
2013-02-07 13:21:00,50.2,2.8,29.50,NW,325,13.2,13.2,14,0.00,,---,0.00,VWS V14.01,2013-02-07 20:21:00,
2013-02-07 13:26:00,50.4,3.0,29.50,NW,317,11.4,12.8,14,0.00,,---,0.00,VWS V14.01,2013-02-07 20:26:00,
2013-02-07 13:32:00,50.2,2.8,29.50,NW,315,12.8,12.8,14,0.00,,---,0.00,VWS V14.01,2013-02-07 20:32:00,
2013-02-07 13:37:00,50.0,2.7,29.50,NW,316,11.0,13.2,14,0.00,,---,0.00,VWS V14.01,2013-02-07 20:37:00,
2013-02-07 13:42:00,50.0,2.7,29.50,NNW,330,8.3,8.3,14,0.00,,---,0.00,VWS V14.01,2013-02-07 20:42:00,
2013-02-07 13:47:00,49.8,2.5,29.50,NW,325,11.0,11.0,14,0.00,,---,0.00,VWS V14.01,2013-02-07 20:47:00,
2013-02-07 13:53:00,50.0,2.7,29.50,NW,310,17.9,17.9,14,0.00,,---,0.00,VWS V14.01,2013-02-07 20:53:00,
2013-02-07 13:58:00,49.8,2.5,29.50,WNW,299,11.0,11.0,14,0.00,,---,0.00,VWS V14.01,2013-02-07 20:58:00,
2013-02-07 14:04:00,49.8,2.5,29.47,West,268,11.9,11.9,14,0.00,,---,0.00,VWS V14.01,2013-02-07 21:04:00,
2013-02-07 14:10:00,50.2,2.8,29.47,NW,309,15.0,15.0,14,0.00,,---,0.00,VWS V14.01,2013-02-07 21:10:00,
2013-02-07 14:15:00,49.8,2.5,29.47,WNW,302,10.5,10.5,14,0.00,,---,0.00,VWS V14.01,2013-02-07 21:15:00,
2013-02-07 14:21:00,49.8,2.5,29.47,WNW,302,10.5,10.5,14,0.00,,---,0.00,VWS V14.01,2013-02-07 21:21:00,
2013-02-07 14:26:00,49.8,2.5,29.47,NW,314,16.3,16.3,14,0.00,,---,0.00,VWS V14.01,2013-02-07 21:26:00,
2013-02-07 14:31:00,49.8,2.5,29.47,NW,315,10.5,10.5,14,0.00,,---,0.00,VWS V14.01,2013-02-07 21:31:00,
2013-02-07 14:36:00,49.8,2.5,29.47,NW,315,10.5,10.5,14,0.00,,---,0.00,VWS V14.01,2013-02-07 21:36:00,
2013-02-07 14:41:00,49.8,2.5,29.47,NW,307,15.0,15.0,14,0.00,,---,0.00,VWS V14.01,2013-02-07 21:41:00,
2013-02-07 14:47:00,49.8,2.5,29.50,NW,313,12.3,12.3,14,0.00,,---,0.00,VWS V14.01,2013-02-07 21:47:00,
2013-02-07 14:52:00,49.6,2.4,29.50,NNW,330,5.8,5.8,14,0.00,,---,0.00,VWS V14.01,2013-02-07 21:52:00,
2013-02-07 14:57:00,49.5,2.3,29.50,WNW,290,8.3,8.3,14,0.00,,---,0.00,VWS V14.01,2013-02-07 21:57:00,
2013-02-07 15:03:00,49.5,2.3,29.50,NW,319,5.8,5.8,14,0.00,,---,0.00,VWS V14.01,2013-02-07 22:03:00,
2013-02-07 15:08:00,49.5,2.3,29.50,WNW,294,7.6,8.1,14,0.00,,---,0.00,VWS V14.01,2013-02-07 22:08:00,
2013-02-07 15:13:00,49.5,2.3,29.47,WNW,297,7.6,7.6,14,0.00,,---,0.00,VWS V14.01,2013-02-07 22:13:00,
2013-02-07 15:18:00,49.6,2.4,29.47,NW,322,8.3,8.3,14,0.00,,---,0.00,VWS V14.01,2013-02-07 22:18:00,
2013-02-07 15:24:00,49.6,2.4,29.47,NW,306,8.1,8.1,14,0.00,,---,0.00,VWS V14.01,2013-02-07 22:24:00,
2013-02-07 15:29:00,49.6,2.4,29.47,NW,306,8.1,8.1,14,0.00,,---,0.00,VWS V14.01,2013-02-07 22:29:00,
2013-02-07 15:34:00,49.5,2.3,29.47,WNW,299,3.1,5.8,14,0.00,,---,0.00,VWS V14.01,2013-02-07 22:34:00,
2013-02-07 15:39:00,49.3,2.1,29.47,WNW,299,3.1,3.1,14,0.00,,---,0.00,VWS V14.01,2013-02-07 22:39:00,
2013-02-07 15:45:00,49.1,2.0,29.47,WNW,287,10.5,10.5,14,0.00,,---,0.00,VWS V14.01,2013-02-07 22:45:00,
2013-02-07 15:50:00,49.1,2.0,29.47,West,268,10.5,10.5,14,0.00,,---,0.00,VWS V14.01,2013-02-07 22:50:00,
2013-02-07 15:55:00,48.9,1.8,29.47,West,268,10.5,10.5,14,0.00,,---,0.00,VWS V14.01,2013-02-07 22:55:00,
2013-02-07 16:00:00,48.7,1.7,29.50,WNW,293,11.0,11.0,14,0.00,,---,0.00,VWS V14.01,2013-02-07 23:00:00,
2013-02-07 16:06:00,48.6,1.5,29.50,WNW,289,6.3,6.3,14,0.00,,---,0.00,VWS V14.01,2013-02-07 23:06:00,
2013-02-07 16:11:00,48.4,1.4,29.50,WSW,256,6.3,7.6,14,0.00,,---,0.00,VWS V14.01,2013-02-07 23:11:00,
2013-02-07 16:17:00,48.4,1.4,29.50,WNW,289,5.8,5.8,14,0.00,,---,0.00,VWS V14.01,2013-02-07 23:17:00,
2013-02-07 16:23:00,48.2,1.2,29.50,WNW,298,6.3,6.7,14,0.00,,---,0.00,VWS V14.01,2013-02-07 23:23:00,
2013-02-07 16:28:00,48.0,1.1,29.50,WNW,297,7.6,7.6,14,0.00,,---,0.00,VWS V14.01,2013-02-07 23:28:00,
2013-02-07 16:34:00,47.7,0.8,29.50,WNW,300,6.3,6.3,14,0.00,,---,0.00,VWS V14.01,2013-02-07 23:34:00,
2013-02-07 16:39:00,47.3,0.5,29.50,WNW,292,5.4,5.4,14,0.00,,---,0.00,VWS V14.01,2013-02-07 23:39:00,
2013-02-07 16:44:00,46.8,0.1,29.50,WNW,291,5.4,5.4,14,0.00,,---,0.00,VWS V14.01,2013-02-07 23:44:00,
2013-02-07 16:49:00,46.0,1.0,29.50,WNW,294,6.3,6.3,15,0.00,,---,0.00,VWS V14.01,2013-02-07 23:49:00,
2013-02-07 16:55:00,45.3,0.4,29.50,WNW,296,6.3,6.7,15,0.00,,---,0.00,VWS V14.01,2013-02-07 23:55:00,
2013-02-07 17:00:00,44.4,-0.3,29.50,WNW,296,6.3,6.3,15,0.00,,---,0.00,VWS V14.01,2013-02-08 00:00:00,
2013-02-07 17:06:00,43.7,-0.9,29.50,WNW,298,6.3,6.3,15,0.00,,---,0.00,VWS V14.01,2013-02-08 00:06:00,
2013-02-07 17:12:00,43.2,-1.4,29.50,WNW,298,5.4,5.4,15,0.00,,---,0.00,VWS V14.01,2013-02-08 00:12:00,
2013-02-07 17:17:00,42.6,-0.4,29.50,WNW,298,6.3,6.3,16,0.00,,---,0.00,VWS V14.01,2013-02-08 00:17:00,
2013-02-07 17:22:00,42.1,-0.9,29.50,WNW,300,5.8,5.8,16,0.00,,---,0.00,VWS V14.01,2013-02-08 00:22:00,
2013-02-07 17:28:00,41.7,-1.2,29.50,WNW,299,6.3,6.3,16,0.00,,---,0.00,VWS V14.01,2013-02-08 00:28:00,
2013-02-07 17:33:00,41.4,-1.5,29.47,WNW,296,6.3,6.3,16,0.00,,---,0.00,VWS V14.01,2013-02-08 00:33:00,
2013-02-07 17:38:00,41.2,-1.6,29.47,WNW,295,6.7,6.7,16,0.00,,---,0.00,VWS V14.01,2013-02-08 00:38:00,
2013-02-07 17:44:00,41.0,-1.7,29.47,WNW,293,5.8,5.8,16,0.00,,---,0.00,VWS V14.01,2013-02-08 00:44:00,
2013-02-07 17:49:00,40.6,-2.0,29.50,WNW,291,6.3,6.3,16,0.00,,---,0.00,VWS V14.01,2013-02-08 00:49:00,
2013-02-07 17:54:00,40.3,-2.3,29.50,WNW,288,5.8,6.3,16,0.00,,---,0.00,VWS V14.01,2013-02-08 00:54:00,
2013-02-07 17:59:00,40.1,-2.5,29.50,WNW,288,5.4,6.3,16,0.00,,---,0.00,VWS V14.01,2013-02-08 00:59:00,
2013-02-07 18:04:00,39.9,-2.6,29.50,WNW,287,5.8,5.8,16,0.00,,---,0.00,VWS V14.01,2013-02-08 01:04:00,
2013-02-07 18:09:00,39.9,-2.6,29.50,West,273,5.8,5.8,16,0.00,,---,0.00,VWS V14.01,2013-02-08 01:09:00,
2013-02-07 18:15:00,39.7,-2.8,29.47,West,275,5.4,5.4,16,0.00,,---,0.00,VWS V14.01,2013-02-08 01:15:00,
2013-02-07 18:20:00,39.7,-2.8,29.47,West,278,5.8,5.8,16,0.00,,---,0.00,VWS V14.01,2013-02-08 01:20:00,
2013-02-07 18:26:00,39.7,-2.8,29.47,West,280,4.9,4.9,16,0.00,,---,0.00,VWS V14.01,2013-02-08 01:26:00,
2013-02-07 18:31:00,39.7,-2.8,29.47,West,280,4.9,4.9,16,0.00,,---,0.00,VWS V14.01,2013-02-08 01:31:00,
2013-02-07 18:37:00,39.4,-3.1,29.47,WNW,286,4.0,4.5,16,0.00,,---,0.00,VWS V14.01,2013-02-08 01:37:00,
2013-02-07 18:42:00,39.2,-3.2,29.47,WNW,287,4.0,4.0,16,0.00,,---,0.00,VWS V14.01,2013-02-08 01:42:00,
2013-02-07 18:48:00,39.2,-3.2,29.47,WNW,287,3.6,3.6,16,0.00,,---,0.00,VWS V14.01,2013-02-08 01:48:00,
2013-02-07 18:54:00,39.4,-3.1,29.47,WNW,287,3.1,3.1,16,0.00,,---,0.00,VWS V14.01,2013-02-08 01:54:00,
2013-02-07 18:59:00,39.7,-2.8,29.47,WNW,287,2.2,2.2,16,0.00,,---,0.00,VWS V14.01,2013-02-08 01:59:00,
2013-02-07 19:05:00,39.9,-2.6,29.47,WNW,287,0.0,0.0,16,0.00,,---,0.00,VWS V14.01,2013-02-08 02:05:00,
2013-02-07 19:11:00,39.7,-2.8,29.47,WNW,287,0.0,0.0,16,0.00,,---,0.00,VWS V14.01,2013-02-08 02:11:00,
2013-02-07 19:16:00,39.4,-3.1,29.47,WNW,287,0.0,0.0,16,0.00,,---,0.00,VWS V14.01,2013-02-08 02:16:00,
2013-02-07 19:22:00,38.1,-4.1,29.47,NE,48,6.3,6.3,16,0.00,,---,0.00,VWS V14.01,2013-02-08 02:22:00,
2013-02-07 19:27:00,36.1,-4.5,29.47,NE,47,6.7,6.7,17,0.00,,---,0.00,VWS V14.01,2013-02-08 02:27:00,
2013-02-07 19:32:00,35.1,-5.3,29.47,NE,37,7.6,7.6,17,0.00,,---,0.00,VWS V14.01,2013-02-08 02:32:00,
2013-02-07 19:37:00,34.7,-5.6,29.47,NE,41,7.6,7.6,17,0.00,,---,0.00,VWS V14.01,2013-02-08 02:37:00,
2013-02-07 19:43:00,34.9,-5.5,29.47,NE,50,7.2,7.2,17,0.00,,---,0.00,VWS V14.01,2013-02-08 02:43:00,
2013-02-07 19:48:00,34.7,-2.3,29.47,ENE,62,6.3,6.3,20,0.00,,---,0.00,VWS V14.01,2013-02-08 02:48:00,
2013-02-07 19:54:00,34.5,-2.4,29.47,NE,55,7.6,7.6,20,0.00,,---,0.00,VWS V14.01,2013-02-08 02:54:00,
2013-02-07 20:00:00,35.4,-1.6,29.47,ENE,63,7.6,7.6,20,0.00,,---,0.00,VWS V14.01,2013-02-08 03:00:00,
2013-02-07 20:05:00,35.8,-2.4,29.47,ENE,70,7.6,8.1,19,0.00,,---,0.00,VWS V14.01,2013-02-08 03:05:00,
2013-02-07 20:10:00,35.6,-2.6,29.47,ENE,74,7.6,7.6,19,0.00,,---,0.00,VWS V14.01,2013-02-08 03:10:00,
2013-02-07 20:16:00,35.2,-1.8,29.47,ENE,75,5.8,5.8,20,0.00,,---,0.00,VWS V14.01,2013-02-08 03:16:00,
2013-02-07 20:21:00,34.7,-2.3,29.47,ENE,76,7.6,8.1,20,0.00,,---,0.00,VWS V14.01,2013-02-08 03:21:00,
2013-02-07 20:26:00,34.3,-2.6,29.47,East,85,8.1,8.1,20,0.00,,---,0.00,VWS V14.01,2013-02-08 03:26:00,
2013-02-07 20:32:00,34.0,-2.9,29.47,East,87,8.3,8.3,20,0.00,,---,0.00,VWS V14.01,2013-02-08 03:32:00,
2013-02-07 20:38:00,33.8,-3.0,29.47,East,90,8.1,8.1,20,0.00,,---,0.00,VWS V14.01,2013-02-08 03:38:00,
2013-02-07 20:43:00,33.8,-3.0,29.44,East,89,6.7,6.7,20,0.00,,---,0.00,VWS V14.01,2013-02-08 03:43:00,
2013-02-07 20:48:00,33.3,-3.5,29.44,East,87,7.6,7.6,20,0.00,,---,0.00,VWS V14.01,2013-02-08 03:48:00,
2013-02-07 20:54:00,33.1,-3.6,29.44,East,93,8.3,8.3,20,0.00,,---,0.00,VWS V14.01,2013-02-08 03:54:00,
2013-02-07 20:59:00,32.7,-3.9,29.44,East,92,8.7,8.7,20,0.00,,---,0.00,VWS V14.01,2013-02-08 03:59:00,
2013-02-07 21:04:00,32.4,-4.2,29.44,East,91,8.3,8.3,20,0.00,,---,0.00,VWS V14.01,2013-02-08 04:04:00,
2013-02-07 21:10:00,31.8,-4.7,29.44,East,91,8.3,8.3,20,0.00,,---,0.00,VWS V14.01,2013-02-08 04:10:00,
2013-02-07 21:15:00,31.5,-5.0,29.44,East,101,8.7,9.2,20,0.00,,---,0.00,VWS V14.01,2013-02-08 04:15:00,
2013-02-07 21:21:00,31.1,-5.3,29.44,East,101,8.7,8.7,20,0.00,,---,0.00,VWS V14.01,2013-02-08 04:21:00,
2013-02-07 21:26:00,30.9,-5.4,29.44,ESE,105,10.5,10.5,20,0.00,,---,0.00,VWS V14.01,2013-02-08 04:26:00,
2013-02-07 21:32:00,30.9,-5.4,29.44,ESE,106,10.5,10.5,20,0.00,,---,0.00,VWS V14.01,2013-02-08 04:32:00,
2013-02-07 21:38:00,30.9,-5.4,29.44,ESE,106,10.5,10.5,20,0.00,,---,0.00,VWS V14.01,2013-02-08 04:38:00,
2013-02-07 21:43:00,30.7,-5.6,29.44,ESE,107,7.6,7.6,20,0.00,,---,0.00,VWS V14.01,2013-02-08 04:43:00,
2013-02-07 21:49:00,30.7,-5.6,29.44,ESE,118,8.1,8.1,20,0.00,,---,0.00,VWS V14.01,2013-02-08 04:49:00,
2013-02-07 21:55:00,30.7,-5.6,29.44,ESE,117,7.6,7.6,20,0.00,,---,0.00,VWS V14.01,2013-02-08 04:55:00,
2013-02-07 22:00:00,31.1,-5.3,29.44,ESE,122,8.1,8.1,20,0.00,,---,0.00,VWS V14.01,2013-02-08 05:00:00,
2013-02-07 22:01:00,31.1,-5.3,29.44,ESE,122,7.6,8.1,20,0.00,,---,0.00,VWS V14.01,2013-02-08 05:01:00,
2013-02-07 22:03:00,31.1,-5.3,29.44,ESE,123,8.3,8.3,20,0.00,,---,0.00,VWS V14.01,2013-02-08 05:03:00,
2013-02-07 22:08:00,31.3,-2.2,29.44,ESE,114,7.6,8.7,23,0.00,,---,0.00,VWS V14.01,2013-02-08 05:08:00,
2013-02-07 22:13:00,31.5,-2.0,29.44,ESE,114,7.6,7.6,23,0.00,,---,0.00,VWS V14.01,2013-02-08 05:13:00,
2013-02-07 22:18:00,31.5,-2.0,29.44,ESE,109,8.3,8.3,23,0.00,,---,0.00,VWS V14.01,2013-02-08 05:18:00,
2013-02-07 22:23:00,31.5,-2.0,29.44,ESE,105,8.7,8.7,23,0.00,,---,0.00,VWS V14.01,2013-02-08 05:23:00,
2013-02-07 22:29:00,31.3,-2.2,29.44,ESE,114,10.5,10.5,23,0.00,,---,0.00,VWS V14.01,2013-02-08 05:29:00,
2013-02-07 22:34:00,31.1,-2.4,29.44,ESE,117,10.1,10.5,23,0.00,,---,0.00,VWS V14.01,2013-02-08 05:34:00,
2013-02-07 22:39:00,31.1,-2.4,29.44,ESE,117,10.1,10.1,23,0.00,,---,0.00,VWS V14.01,2013-02-08 05:39:00,
2013-02-07 22:45:00,31.3,-2.2,29.44,ESE,122,10.5,10.5,23,0.00,,---,0.00,VWS V14.01,2013-02-08 05:45:00,
2013-02-07 22:50:00,31.1,-2.4,29.44,ESE,122,10.5,10.5,23,0.00,,---,0.00,VWS V14.01,2013-02-08 05:50:00,
2013-02-07 22:56:00,30.7,-2.7,29.44,ESE,122,11.0,11.0,23,0.00,,---,0.00,VWS V14.01,2013-02-08 05:56:00,
2013-02-07 23:01:00,30.2,-3.1,29.44,ESE,123,11.0,11.0,23,0.00,,---,0.00,VWS V14.01,2013-02-08 06:01:00,
2013-02-07 23:06:00,30.0,-1.5,29.44,SE,126,12.3,12.3,25,0.00,,---,0.00,VWS V14.01,2013-02-08 06:06:00,
2013-02-07 23:12:00,30.0,-1.5,29.44,SE,128,11.4,11.4,25,0.00,,---,0.00,VWS V14.01,2013-02-08 06:12:00,
2013-02-07 23:17:00,30.2,-1.4,29.44,SE,128,11.4,11.4,25,0.00,,---,0.00,VWS V14.01,2013-02-08 06:17:00,
2013-02-07 23:23:00,29.8,-1.7,29.44,ESE,117,10.5,11.0,25,0.00,,---,0.00,VWS V14.01,2013-02-08 06:23:00,
2013-02-07 23:28:00,29.3,-2.2,29.44,ESE,121,11.0,11.0,25,0.00,,---,0.00,VWS V14.01,2013-02-08 06:28:00,
2013-02-07 23:34:00,28.8,-0.2,29.44,ESE,121,11.0,11.0,28,0.00,,---,0.00,VWS V14.01,2013-02-08 06:34:00,
2013-02-07 23:39:00,28.4,-0.5,29.44,ESE,118,11.0,11.0,28,0.00,,---,0.00,VWS V14.01,2013-02-08 06:39:00,
2013-02-07 23:45:00,28.0,-0.9,29.44,ESE,118,11.0,11.0,28,0.00,,---,0.00,VWS V14.01,2013-02-08 06:45:00,
2013-02-07 23:51:00,27.9,-1.0,29.44,ESE,123,11.9,11.9,28,0.00,,---,0.00,VWS V14.01,2013-02-08 06:51:00,
2013-02-07 23:56:00,27.9,1.2,29.44,ESE,123,11.9,11.9,31,0.00,,---,0.00,VWS V14.01,2013-02-08 06:56:00,